sensor_id;sensor_type;location;lat;lon;timestamp;pressure;altitude;pressure_sealevel;temperature;humidity
46291;BME280;32023;44.444;26.006;2024-02-28T00:02:08;101023.63;;;5.74;nan
46291;BME280;32023;44.444;26.006;2024-02-28T00:04:50;101036.44;;;5.67;nan
46291;BME280;32023;44.444;26.006;2024-02-28T00:07:48;101035.63;;;5.60;nan
46291;BME280;32023;44.444;26.006;2024-02-28T00:13:04;101035.84;;;5.65;nan
46291;BME280;32023;44.444;26.006;2024-02-28T00:18:47;101029.09;;;5.61;nan
46291;BME280;32023;44.444;26.006;2024-02-28T00:25:26;101022.38;;;5.57;nan
46291;BME280;32023;44.444;26.006;2024-02-28T00:28:37;101024.69;;;5.54;nan
46291;BME280;32023;44.444;26.006;2024-02-28T00:34:44;101026.59;;;5.53;nan
46291;BME280;32023;44.444;26.006;2024-02-28T00:49:48;101018.41;;;5.53;nan
46291;BME280;32023;44.444;26.006;2024-02-28T00:52:25;101023.84;;;5.53;nan
46291;BME280;32023;44.444;26.006;2024-02-28T00:55:14;101017.78;;;5.51;nan
46291;BME280;32023;44.444;26.006;2024-02-28T00:57:43;101024.47;;;5.55;nan
46291;BME280;32023;44.444;26.006;2024-02-28T01:03:53;101017.78;;;5.51;nan
46291;BME280;32023;44.444;26.006;2024-02-28T01:06:27;101016.69;;;5.52;nan
46291;BME280;32023;44.444;26.006;2024-02-28T01:09:03;101017.53;;;5.53;nan
46291;BME280;32023;44.444;26.006;2024-02-28T01:14:10;100973.03;;;5.26;nan
46291;BME280;32023;44.444;26.006;2024-02-28T01:16:41;101024.06;;;5.45;nan
46291;BME280;32023;44.444;26.006;2024-02-28T01:19:35;101018.00;;;5.43;nan
46291;BME280;32023;44.444;26.006;2024-02-28T01:22:22;101028.69;;;5.45;nan
46291;BME280;32023;44.444;26.006;2024-02-28T01:25:13;101029.53;;;5.45;nan
46291;BME280;32023;44.444;26.006;2024-02-28T01:27:41;101028.69;;;5.45;nan
46291;BME280;32023;44.444;26.006;2024-02-28T01:30:34;101020.47;;;5.45;nan
46291;BME280;32023;44.444;26.006;2024-02-28T01:33:05;101020.47;;;5.45;nan
46291;BME280;32023;44.444;26.006;2024-02-28T01:35:32;101026.78;;;5.45;nan
46291;BME280;32023;44.444;26.006;2024-02-28T01:41:16;101025.97;;;5.31;nan
46291;BME280;32023;44.444;26.006;2024-02-28T01:43:44;101026.81;;;5.32;nan
46291;BME280;32023;44.444;26.006;2024-02-28T01:49:07;101026.78;;;5.25;nan
46291;BME280;32023;44.444;26.006;2024-02-28T01:51:59;101017.31;;;5.21;nan
46291;BME280;32023;44.444;26.006;2024-02-28T01:54:43;101016.28;;;5.16;nan
46291;BME280;32023;44.444;26.006;2024-02-28T01:57:22;101017.75;;;5.12;nan
46291;BME280;32023;44.444;26.006;2024-02-28T02:02:30;101022.97;;;5.07;nan
46291;BME280;32023;44.444;26.006;2024-02-28T02:05:19;101025.94;;;5.05;nan
46291;BME280;32023;44.444;26.006;2024-02-28T02:08:05;101037.69;;;5.06;nan
46291;BME280;32023;44.444;26.006;2024-02-28T02:10:52;101039.59;;;5.12;nan
46291;BME280;32023;44.444;26.006;2024-02-28T02:13:30;101035.41;;;5.16;nan
46291;BME280;32023;44.444;26.006;2024-02-28T02:16:19;101040.44;;;5.19;nan
46291;BME280;32023;44.444;26.006;2024-02-28T02:18:54;101041.50;;;5.24;nan
46291;BME280;32023;44.444;26.006;2024-02-28T02:21:31;101035.38;;;5.29;nan
46291;BME280;32023;44.444;26.006;2024-02-28T02:24:27;101034.78;;;5.33;nan
46291;BME280;32023;44.444;26.006;2024-02-28T02:27:04;101047.59;;;5.33;nan
46291;BME280;32023;44.444;26.006;2024-02-28T02:29:42;101044.47;;;5.36;nan
46291;BME280;32023;44.444;26.006;2024-02-28T02:32:14;101038.78;;;5.24;nan
46291;BME280;32023;44.444;26.006;2024-02-28T02:34:47;101046.13;;;5.30;nan
46291;BME280;32023;44.444;26.006;2024-02-28T02:37:13;101042.97;;;5.33;nan
46291;BME280;32023;44.444;26.006;2024-02-28T02:39:47;101044.44;;;5.29;nan
46291;BME280;32023;44.444;26.006;2024-02-28T02:42:24;101051.59;;;5.17;nan
46291;BME280;32023;44.444;26.006;2024-02-28T02:45:14;101059.13;;;5.22;nan
46291;BME280;32023;44.444;26.006;2024-02-28T02:51:58;101072.56;;;5.30;nan
46291;BME280;32023;44.444;26.006;2024-02-28T02:57:57;101015.22;;;5.04;nan
46291;BME280;32023;44.444;26.006;2024-02-28T03:00:53;101063.78;;;5.28;nan
46291;BME280;32023;44.444;26.006;2024-02-28T03:24:10;101085.94;;;4.92;nan
46291;BME280;32023;44.444;26.006;2024-02-28T03:27:05;101091.38;;;4.85;nan
46291;BME280;32023;44.444;26.006;2024-02-28T03:29:46;101092.22;;;4.86;nan
46291;BME280;32023;44.444;26.006;2024-02-28T03:32:27;101103.13;;;4.86;nan
46291;BME280;32023;44.444;26.006;2024-02-28T03:35:03;101097.69;;;4.86;nan
46291;BME280;32023;44.444;26.006;2024-02-28T03:37:50;101100.81;;;4.83;nan
46291;BME280;32023;44.444;26.006;2024-02-28T03:40:37;101098.69;;;4.78;nan
46291;BME280;32023;44.444;26.006;2024-02-28T03:43:19;101097.84;;;4.71;nan
46291;BME280;32023;44.444;26.006;2024-02-28T03:45:46;101101.78;;;4.69;nan
46291;BME280;32023;44.444;26.006;2024-02-28T03:48:15;101092.31;;;4.58;nan
46291;BME280;32023;44.444;26.006;2024-02-28T03:51:04;101098.66;;;4.31;nan
46291;BME280;32023;44.444;26.006;2024-02-28T03:53:31;101099.56;;;4.38;nan
46291;BME280;32023;44.444;26.006;2024-02-28T03:56:00;101105.47;;;4.42;nan
46291;BME280;32023;44.444;26.006;2024-02-28T03:59:07;101095.78;;;4.39;nan
46291;BME280;32023;44.444;26.006;2024-02-28T04:01:38;101106.47;;;4.34;nan
46291;BME280;32023;44.444;26.006;2024-02-28T04:04:15;101104.53;;;4.28;nan
46291;BME280;32023;44.444;26.006;2024-02-28T04:06:52;101117.72;;;4.24;nan
46291;BME280;32023;44.444;26.006;2024-02-28T04:09:48;101108.91;;;4.22;nan
46291;BME280;32023;44.444;26.006;2024-02-28T04:15:35;101115.69;;;4.33;nan
46291;BME280;32023;44.444;26.006;2024-02-28T04:24:25;101112.06;;;4.60;nan
46291;BME280;32023;44.444;26.006;2024-02-28T04:27:20;101108.50;;;4.66;nan
46291;BME280;32023;44.444;26.006;2024-02-28T04:29:49;101127.19;;;4.69;nan
46291;BME280;32023;44.444;26.006;2024-02-28T04:32:39;101114.41;;;4.70;nan
46291;BME280;32023;44.444;26.006;2024-02-28T04:35:08;101115.69;;;4.74;nan
46291;BME280;32023;44.444;26.006;2024-02-28T04:38:05;101116.94;;;4.71;nan
46291;BME280;32023;44.444;26.006;2024-02-28T04:40:35;101119.69;;;4.78;nan
46291;BME280;32023;44.444;26.006;2024-02-28T04:43:23;101119.84;;;4.63;nan
46291;BME280;32023;44.444;26.006;2024-02-28T04:45:55;101120.47;;;4.65;nan
46291;BME280;32023;44.444;26.006;2024-02-28T04:51:35;101139.78;;;4.70;nan
46291;BME280;32023;44.444;26.006;2024-02-28T04:54:23;101131.00;;;4.75;nan
46291;BME280;32023;44.444;26.006;2024-02-28T05:00:04;101137.63;;;4.59;nan
46291;BME280;32023;44.444;26.006;2024-02-28T05:02:39;101136.59;;;4.60;nan
46291;BME280;32023;44.444;26.006;2024-02-28T05:05:20;101137.41;;;4.61;nan
46291;BME280;32023;44.444;26.006;2024-02-28T05:07:49;101136.56;;;4.54;nan
46291;BME280;32023;44.444;26.006;2024-02-28T05:10:18;101129.63;;;4.51;nan
46291;BME280;32023;44.444;26.006;2024-02-28T05:12:55;101136.97;;;4.51;nan
46291;BME280;32023;44.444;26.006;2024-02-28T05:15:32;101143.66;;;4.48;nan
46291;BME280;32023;44.444;26.006;2024-02-28T05:17:58;101133.31;;;4.37;nan
46291;BME280;32023;44.444;26.006;2024-02-28T05:20:38;101127.16;;;4.22;nan
46291;BME280;32023;44.444;26.006;2024-02-28T05:23:25;101136.91;;;4.10;nan
46291;BME280;32023;44.444;26.006;2024-02-28T05:25:55;101141.06;;;4.06;nan
46291;BME280;32023;44.444;26.006;2024-02-28T05:28:40;101138.75;;;4.03;nan
46291;BME280;32023;44.444;26.006;2024-02-28T05:31:29;101137.50;;;4.05;nan
46291;BME280;32023;44.444;26.006;2024-02-28T05:34:03;101140.47;;;4.10;nan
46291;BME280;32023;44.444;26.006;2024-02-28T05:36:40;101140.25;;;4.12;nan
46291;BME280;32023;44.444;26.006;2024-02-28T05:39:53;101145.72;;;4.12;nan
46291;BME280;32023;44.444;26.006;2024-02-28T05:42:26;101140.03;;;4.07;nan
46291;BME280;32023;44.444;26.006;2024-02-28T05:44:56;101147.38;;;4.06;nan
46291;BME280;32023;44.444;26.006;2024-02-28T05:47:28;101145.72;;;4.12;nan
46291;BME280;32023;44.444;26.006;2024-02-28T05:50:26;101144.91;;;4.11;nan
46291;BME280;32023;44.444;26.006;2024-02-28T05:52:59;101139.22;;;4.13;nan
46291;BME280;32023;44.444;26.006;2024-02-28T06:52:13;101190.06;;;5.56;nan
46291;BME280;32023;44.444;26.006;2024-02-28T06:54:48;101189.88;;;5.64;nan
46291;BME280;32023;44.444;26.006;2024-02-28T06:57:23;101191.19;;;5.81;nan
46291;BME280;32023;44.444;26.006;2024-02-28T07:00:06;101196.25;;;5.98;nan
46291;BME280;32023;44.444;26.006;2024-02-28T07:14:49;101199.78;;;6.70;nan
46291;BME280;32023;44.444;26.006;2024-02-28T07:21:09;101189.84;;;6.83;nan
46291;BME280;32023;44.444;26.006;2024-02-28T07:24:28;101199.53;;;6.85;nan
46291;BME280;32023;44.444;26.006;2024-02-28T07:27:22;101207.06;;;6.96;nan
46291;BME280;32023;44.444;26.006;2024-02-28T11:22:40;101070.56;;;33.91;nan
46291;BME280;32023;44.444;26.006;2024-02-28T11:38:47;101045.44;;;35.56;nan
46291;BME280;32023;44.444;26.006;2024-02-28T11:50:43;101023.00;;;34.94;nan
46291;BME280;32023;44.444;26.006;2024-02-28T15:21:46;100970.09;;;15.10;nan
46291;BME280;32023;44.444;26.006;2024-02-28T15:30:39;100974.41;;;14.70;nan
46291;BME280;32023;44.444;26.006;2024-02-28T16:00:16;100989.25;;;13.55;nan
46291;BME280;32023;44.444;26.006;2024-02-28T16:24:17;100999.38;;;12.91;nan
46291;BME280;32023;44.444;26.006;2024-02-28T16:27:16;101004.28;;;12.84;nan
46291;BME280;32023;44.444;26.006;2024-02-28T16:29:45;100998.69;;;12.79;nan
46291;BME280;32023;44.444;26.006;2024-02-28T16:32:34;100990.84;;;12.71;nan
46291;BME280;32023;44.444;26.006;2024-02-28T16:35:24;100994.66;;;12.65;nan
46291;BME280;32023;44.444;26.006;2024-02-28T16:38:05;100988.47;;;12.57;nan
46291;BME280;32023;44.444;26.006;2024-02-28T16:44:06;100996.69;;;12.52;nan
46291;BME280;32023;44.444;26.006;2024-02-28T16:46:35;101001.63;;;12.50;nan
46291;BME280;32023;44.444;26.006;2024-02-28T16:49:13;101002.66;;;12.44;nan
46291;BME280;32023;44.444;26.006;2024-02-28T16:51:47;101000.44;;;12.41;nan
46291;BME280;32023;44.444;26.006;2024-02-28T16:54:40;101000.09;;;12.38;nan
46291;BME280;32023;44.444;26.006;2024-02-28T17:01:01;100994.38;;;12.23;nan
46291;BME280;32023;44.444;26.006;2024-02-28T17:03:59;100994.81;;;12.15;nan
46291;BME280;32023;44.444;26.006;2024-02-28T17:06:57;100997.75;;;12.08;nan
46291;BME280;32023;44.444;26.006;2024-02-28T17:09:54;100999.94;;;12.06;nan
46291;BME280;32023;44.444;26.006;2024-02-28T17:12:37;100992.16;;;12.03;nan
46291;BME280;32023;44.444;26.006;2024-02-28T17:19:26;100996.38;;;11.89;nan
46291;BME280;32023;44.444;26.006;2024-02-28T17:39:24;101015.94;;;11.71;nan
46291;BME280;32023;44.444;26.006;2024-02-28T17:47:03;101015.06;;;11.53;nan
46291;BME280;32023;44.444;26.006;2024-02-28T17:53:46;101013.34;;;11.47;nan
46291;BME280;32023;44.444;26.006;2024-02-28T17:56:23;101016.31;;;11.46;nan
46291;BME280;32023;44.444;26.006;2024-02-28T17:58:52;101014.91;;;11.43;nan
46291;BME280;32023;44.444;26.006;2024-02-28T18:01:36;101016.22;;;11.41;nan
46291;BME280;32023;44.444;26.006;2024-02-28T18:04:42;101019.75;;;11.36;nan
46291;BME280;32023;44.444;26.006;2024-02-28T18:07:43;101018.06;;;11.35;nan
46291;BME280;32023;44.444;26.006;2024-02-28T18:10:31;101021.91;;;11.34;nan
46291;BME280;32023;44.444;26.006;2024-02-28T18:13:15;101023.59;;;11.35;nan
46291;BME280;32023;44.444;26.006;2024-02-28T18:19:29;101032.38;;;11.32;nan
46291;BME280;32023;44.444;26.006;2024-02-28T18:25:10;101022.31;;;11.26;nan
46291;BME280;32023;44.444;26.006;2024-02-28T18:28:25;101020.66;;;11.25;nan
46291;BME280;32023;44.444;26.006;2024-02-28T18:31:15;101015.63;;;11.22;nan
46291;BME280;32023;44.444;26.006;2024-02-28T18:33:44;101028.22;;;11.18;nan
46291;BME280;32023;44.444;26.006;2024-02-28T18:36:16;101024.06;;;11.16;nan
46291;BME280;32023;44.444;26.006;2024-02-28T18:42:29;100977.88;;;10.78;nan
46291;BME280;32023;44.444;26.006;2024-02-28T18:56:06;101027.78;;;10.81;nan
46291;BME280;32023;44.444;26.006;2024-02-28T19:09:34;101035.03;;;10.71;nan
46291;BME280;32023;44.444;26.006;2024-02-28T19:12:38;101025.56;;;10.67;nan
46291;BME280;32023;44.444;26.006;2024-02-28T19:15:35;101025.81;;;10.65;nan
46291;BME280;32023;44.444;26.006;2024-02-28T19:18:44;101025.47;;;10.61;nan
46291;BME280;32023;44.444;26.006;2024-02-28T19:21:30;101025.94;;;10.58;nan
46291;BME280;32023;44.444;26.006;2024-02-28T19:24:21;101032.53;;;10.57;nan
46291;BME280;32023;44.444;26.006;2024-02-28T19:34:07;101029.84;;;10.34;nan
46291;BME280;32023;44.444;26.006;2024-02-28T19:43:47;101033.09;;;10.08;nan
46291;BME280;32023;44.444;26.006;2024-02-28T19:49:56;101033.53;;;9.93;nan
46291;BME280;32023;44.444;26.006;2024-02-28T20:06:23;101037.94;;;9.59;nan
46291;BME280;32023;44.444;26.006;2024-02-28T20:09:15;100834.44;;;7.95;nan
46291;BME280;32023;44.444;26.006;2024-02-28T20:12:19;101045.00;;;9.55;nan
46291;BME280;32023;44.444;26.006;2024-02-28T20:15:31;101040.22;;;9.51;nan
46291;BME280;32023;44.444;26.006;2024-02-28T20:18:23;101049.88;;;9.42;nan
46291;BME280;32023;44.444;26.006;2024-02-28T20:24:55;101037.03;;;9.24;nan
46291;BME280;32023;44.444;26.006;2024-02-28T20:30:49;101032.25;;;9.19;nan
46291;BME280;32023;44.444;26.006;2024-02-28T20:33:19;101036.31;;;9.17;nan
46291;BME280;32023;44.444;26.006;2024-02-28T20:35:50;101037.38;;;9.16;nan
46291;BME280;32023;44.444;26.006;2024-02-28T20:41:59;101042.34;;;9.07;nan
46291;BME280;32023;44.444;26.006;2024-02-28T20:44:58;101046.78;;;9.08;nan
46291;BME280;32023;44.444;26.006;2024-02-28T20:47:52;101053.34;;;9.07;nan
46291;BME280;32023;44.444;26.006;2024-02-28T21:28:37;101064.44;;;8.53;nan
46291;BME280;32023;44.444;26.006;2024-02-28T21:38:20;101065.19;;;8.42;nan
46291;BME280;32023;44.444;26.006;2024-02-28T21:41:06;101057.00;;;8.35;nan
46291;BME280;32023;44.444;26.006;2024-02-28T21:46:57;101055.19;;;8.29;nan
46291;BME280;32023;44.444;26.006;2024-02-28T21:50:24;101064.06;;;8.24;nan
46291;BME280;32023;44.444;26.006;2024-02-28T21:56:05;101054.47;;;8.15;nan
46291;BME280;32023;44.444;26.006;2024-02-28T22:02:02;101069.31;;;8.08;nan
46291;BME280;32023;44.444;26.006;2024-02-28T22:04:56;101066.63;;;8.01;nan
46291;BME280;32023;44.444;26.006;2024-02-28T22:10:25;101067.16;;;7.92;nan
46291;BME280;32023;44.444;26.006;2024-02-28T22:13:09;101064.47;;;7.85;nan
46291;BME280;32023;44.444;26.006;2024-02-28T22:15:35;101060.25;;;7.83;nan
46291;BME280;32023;44.444;26.006;2024-02-28T22:18:25;101063.00;;;7.83;nan
46291;BME280;32023;44.444;26.006;2024-02-28T22:28:05;101059.53;;;7.69;nan
46291;BME280;32023;44.444;26.006;2024-02-28T22:30:59;101066.16;;;7.61;nan
46291;BME280;32023;44.444;26.006;2024-02-28T22:33:55;101067.25;;;7.54;nan
46291;BME280;32023;44.444;26.006;2024-02-28T22:36:25;101062.44;;;7.49;nan
46291;BME280;32023;44.444;26.006;2024-02-28T22:42:54;101066.09;;;7.43;nan
46291;BME280;32023;44.444;26.006;2024-02-28T22:45:20;101065.25;;;7.43;nan
46291;BME280;32023;44.444;26.006;2024-02-28T22:48:20;101066.94;;;7.37;nan
46291;BME280;32023;44.444;26.006;2024-02-28T22:51:16;101068.44;;;7.33;nan
46291;BME280;32023;44.444;26.006;2024-02-28T22:53:55;101072.69;;;7.29;nan
46291;BME280;32023;44.444;26.006;2024-02-28T22:57:17;101060.28;;;7.26;nan
46291;BME280;32023;44.444;26.006;2024-02-28T22:59:49;101058.66;;;7.19;nan
46291;BME280;32023;44.444;26.006;2024-02-28T23:02:31;101055.72;;;7.20;nan
46291;BME280;32023;44.444;26.006;2024-02-28T23:05:21;101067.53;;;7.14;nan
46291;BME280;32023;44.444;26.006;2024-02-28T23:08:08;101066.06;;;7.12;nan
46291;BME280;32023;44.444;26.006;2024-02-28T23:10:56;101070.94;;;7.10;nan
46291;BME280;32023;44.444;26.006;2024-02-28T23:13:45;101074.78;;;7.02;nan
46291;BME280;32023;44.444;26.006;2024-02-28T23:23:52;101069.41;;;6.83;nan
46291;BME280;32023;44.444;26.006;2024-02-28T23:26:42;101067.94;;;6.80;nan
46291;BME280;32023;44.444;26.006;2024-02-28T23:29:30;101076.16;;;6.73;nan
46291;BME280;32023;44.444;26.006;2024-02-28T23:32:15;101086.28;;;6.73;nan
46291;BME280;32023;44.444;26.006;2024-02-28T23:38:37;101085.66;;;6.71;nan
46291;BME280;32023;44.444;26.006;2024-02-28T23:41:43;101081.69;;;6.67;nan
46291;BME280;32023;44.444;26.006;2024-02-28T23:44:44;101081.47;;;6.62;nan
46291;BME280;32023;44.444;26.006;2024-02-28T23:47:21;101077.50;;;6.64;nan
46291;BME280;32023;44.444;26.006;2024-02-28T23:50:32;101070.34;;;6.63;nan
46291;BME280;32023;44.444;26.006;2024-02-28T23:53:54;101076.84;;;6.62;nan
46291;BME280;32023;44.444;26.006;2024-02-28T23:56:35;101080.22;;;6.64;nan
46291;BME280;32023;44.444;26.006;2024-02-28T23:59:06;101077.50;;;6.64;nan
